createdAt,value
2023-04-13T00:04:24.074Z,98653.81
2023-04-13T00:09:20.290Z,98640.28
2023-04-13T00:14:18.695Z,98636.13
2023-04-13T00:19:14.988Z,98629.72
2023-04-13T00:24:11.254Z,98615.56
2023-04-13T00:29:07.479Z,98620.78
2023-04-13T00:34:04.021Z,98611.41
2023-04-13T00:39:00.404Z,98610.66
2023-04-13T00:43:58.855Z,98598.69
2023-04-13T00:48:55.655Z,98588.47
2023-04-13T00:53:52.552Z,98580.38
2023-04-13T00:58:48.836Z,98586.69
2023-04-13T01:03:45.183Z,98570.56
2023-04-13T01:09:10.633Z,98565.88
2023-04-13T01:14:13.168Z,98553.91
2023-04-13T01:19:15.390Z,98552.88
2023-04-13T01:24:21.719Z,98546.06
2023-04-13T01:29:18.234Z,98544.41
2023-04-13T01:34:14.566Z,98545.84
2023-04-13T01:39:18.511Z,98538.34
2023-04-13T01:44:14.798Z,98547.81
2023-04-13T01:49:11.059Z,98534.22
2023-04-13T01:54:11.205Z,98545.50
2023-04-13T01:59:07.677Z,98532.00
2023-04-13T02:04:05.585Z,98542.47
2023-04-13T02:09:01.842Z,98550.03
2023-04-13T02:13:58.821Z,98547.47
2023-04-13T02:18:58.374Z,98558.09
2023-04-13T02:23:54.809Z,98551.19
2023-04-13T02:28:51.398Z,98546.59
2023-04-13T02:33:47.844Z,98540.09
2023-04-13T02:38:44.128Z,98534.13
2023-04-13T02:43:40.671Z,98540.53
2023-04-13T02:48:36.998Z,98537.88
2023-04-13T02:53:33.228Z,98542.38
2023-04-13T02:58:31.630Z,98535.00
2023-04-13T03:03:30.170Z,98532.66
2023-04-13T03:08:27.232Z,98533.50
2023-04-13T03:13:23.516Z,98522.41
2023-04-13T03:18:19.794Z,98526.72
2023-04-13T03:23:16.263Z,98523.09
2023-04-13T03:28:12.532Z,98523.28
2023-04-13T03:33:09.059Z,98522.03
2023-04-13T03:38:05.344Z,98514.94
2023-04-13T03:43:01.673Z,98514.38
2023-04-13T03:47:58.068Z,98516.06
2023-04-13T03:52:54.348Z,98514.94
2023-04-13T03:57:50.827Z,98516.88
2023-04-13T04:02:47.267Z,98517.19
2023-04-13T04:07:43.654Z,98513.56
2023-04-13T04:12:39.884Z,98516.63
2023-04-13T04:17:38.628Z,98516.34
2023-04-13T04:22:36.544Z,98518.28
2023-04-13T04:27:38.063Z,98517.31
2023-04-13T04:32:34.433Z,98523.69
2023-04-13T04:37:37.268Z,98526.75
2023-04-13T04:42:33.841Z,98527.31
2023-04-13T04:47:30.217Z,98530.50
2023-04-13T04:52:26.503Z,98540.53
2023-04-13T04:57:22.735Z,98554.41
2023-04-13T05:02:19.308Z,98556.38
2023-04-13T05:07:17.677Z,98565.81
2023-04-13T05:12:13.960Z,98578.34
2023-04-13T05:17:10.189Z,98580.44
2023-04-13T05:22:06.402Z,98585.19
2023-04-13T05:27:02.688Z,98588.66
2023-04-13T05:31:59.241Z,98599.66
2023-04-13T05:36:56.241Z,98602.00
2023-04-13T05:41:52.479Z,98609.22
2023-04-13T05:46:52.099Z,98616.75
2023-04-13T05:51:48.946Z,98627.88
2023-04-13T05:56:45.386Z,98625.25
2023-04-13T06:01:41.717Z,98642.09
2023-04-13T06:06:37.981Z,98636.38
2023-04-13T06:11:34.217Z,98652.09
2023-04-13T06:16:30.465Z,98664.75
2023-04-13T06:21:28.563Z,98668.81
2023-04-13T06:26:25.322Z,98667.41
2023-04-13T06:31:23.586Z,98678.81
2023-04-13T06:36:19.988Z,98684.25
2023-04-13T06:41:16.261Z,98689.66
2023-04-13T06:46:14.323Z,98703.44
2023-04-13T06:51:11.776Z,98701.34
2023-04-13T06:56:08.214Z,98709.41
2023-04-13T07:01:05.065Z,98712.88
2023-04-13T07:06:01.751Z,98723.59
2023-04-13T07:10:58.088Z,98726.00
2023-04-13T07:15:54.381Z,98733.19
2023-04-13T07:20:50.867Z,98739.44
2023-04-13T07:25:47.098Z,98747.03
2023-04-13T07:30:46.172Z,98753.00
2023-04-13T07:35:42.452Z,98773.22
2023-04-13T07:40:38.675Z,98780.66
2023-04-13T07:45:34.957Z,98797.53
2023-04-13T07:50:31.196Z,98805.78
2023-04-13T07:55:27.427Z,98812.38
2023-04-13T08:00:23.825Z,98815.66
2023-04-13T08:05:20.878Z,98817.75
2023-04-13T08:10:17.400Z,98824.41
2023-04-13T08:15:14.211Z,98822.00
2023-04-13T08:20:10.541Z,98830.19
2023-04-13T08:25:07.015Z,98833.63
2023-04-13T08:30:05.341Z,98838.16
2023-04-13T08:35:06.737Z,98841.94
2023-04-13T08:40:07.263Z,98850.06
2023-04-13T08:45:03.876Z,98853.81
2023-04-13T08:50:00.945Z,98861.88
2023-04-13T08:55:02.192Z,98860.88
2023-04-13T08:59:59.153Z,98866.53
2023-04-13T09:04:57.994Z,98874.41
2023-04-13T09:09:58.306Z,98882.06
2023-04-13T09:14:55.216Z,98888.66
2023-04-13T09:19:51.588Z,98892.16
2023-04-13T09:24:48.724Z,98905.81
2023-04-13T09:29:48.642Z,98913.16
2023-04-13T09:34:44.873Z,98923.53
2023-04-13T09:39:41.357Z,98917.25
2023-04-13T09:44:37.602Z,98927.22
2023-04-13T09:49:41.647Z,98925.00
2023-04-13T09:54:38.454Z,98933.59
2023-04-13T09:59:35.545Z,98958.56
2023-04-13T10:04:31.831Z,98960.03
2023-04-13T10:09:28.050Z,98976.94
2023-04-13T10:14:31.803Z,98974.81
2023-04-13T10:19:29.478Z,98969.59
2023-04-13T10:24:26.176Z,98980.13
2023-04-13T10:29:29.116Z,98986.91
2023-04-13T10:34:32.732Z,99001.97
2023-04-13T10:39:30.329Z,99004.88
2023-04-13T10:44:26.735Z,99023.13
2023-04-13T10:49:32.488Z,99008.16
2023-04-13T10:54:30.059Z,99019.63
2023-04-13T10:59:56.104Z,99014.00
2023-04-13T11:04:54.216Z,99019.41
2023-04-13T11:09:50.911Z,99027.63
2023-04-13T11:14:47.612Z,99042.28
2023-04-13T11:19:54.634Z,99042.06
2023-04-13T11:24:51.484Z,99041.38
2023-04-13T11:30:00.908Z,99047.28
2023-04-13T11:35:08.398Z,99048.50
2023-04-13T11:40:16.741Z,99045.84
2023-04-13T11:45:14.722Z,99049.34
2023-04-13T11:50:12.975Z,99060.91
2023-04-13T11:55:22.329Z,99068.66
2023-04-13T12:00:27.175Z,99075.72
2023-04-13T12:05:25.400Z,99078.34
2023-04-13T12:10:36.377Z,99084.75
2023-04-13T12:15:49.533Z,99079.56
2023-04-13T12:21:01.279Z,99083.63
2023-04-13T12:25:58.712Z,99085.97
2023-04-13T12:30:55.013Z,99085.31
2023-04-13T12:35:51.633Z,99099.22
2023-04-13T12:40:47.936Z,99106.59
2023-04-13T12:45:44.221Z,99105.56
2023-04-13T12:50:40.497Z,99110.75
2023-04-13T12:55:36.772Z,99117.56
2023-04-13T13:00:33.272Z,99122.75
2023-04-13T13:05:29.739Z,99142.22
2023-04-13T13:10:29.510Z,99138.38
2023-04-13T13:15:26.402Z,99155.78
2023-04-13T13:20:22.788Z,99158.09
2023-04-13T13:25:19.280Z,99155.75
2023-04-13T13:30:15.639Z,99156.69
2023-04-13T13:35:12.036Z,99160.59
2023-04-13T13:40:13.297Z,99153.84
2023-04-13T13:45:09.906Z,99149.59
2023-04-13T13:50:06.883Z,99154.72
2023-04-13T13:55:03.298Z,99161.16
2023-04-13T14:00:00.180Z,99164.00
2023-04-13T14:04:56.496Z,99167.59
2023-04-13T14:09:52.755Z,99171.06
2023-04-13T14:14:49.024Z,99169.69
2023-04-13T14:19:45.318Z,99188.00
2023-04-13T14:24:41.604Z,99194.19
2023-04-13T14:29:38.038Z,99195.34
2023-04-13T14:34:34.331Z,99194.25
2023-04-13T14:39:31.016Z,99204.69
2023-04-13T14:44:27.321Z,99206.97
2023-04-13T14:49:23.602Z,99218.31
2023-04-13T14:54:20.334Z,99214.94
2023-04-13T14:59:16.645Z,99211.84
2023-04-13T15:04:13.007Z,99223.63
2023-04-13T15:09:09.669Z,99231.47
2023-04-13T15:14:06.188Z,99222.78
2023-04-13T15:19:02.765Z,99227.41
2023-04-13T15:23:59.447Z,99246.53
2023-04-13T15:28:55.827Z,99239.28
2023-04-13T15:33:52.097Z,99248.09
2023-04-13T15:38:49.030Z,99253.28
2023-04-13T15:43:45.568Z,99259.97
2023-04-13T15:48:41.863Z,99259.03
2023-04-13T15:53:38.132Z,99254.72
2023-04-13T15:58:34.869Z,99272.72
2023-04-13T16:03:32.036Z,99280.41
2023-04-13T16:08:29.041Z,99290.03
2023-04-13T16:13:34.621Z,99294.97
2023-04-13T16:18:40.239Z,99301.69
2023-04-13T16:23:37.331Z,99301.78
2023-04-13T16:28:34.516Z,99313.84
2023-04-13T16:33:30.840Z,99329.69
2023-04-13T16:38:27.302Z,99328.94
2023-04-13T16:43:23.573Z,99333.88
2023-04-13T16:48:20.740Z,99344.19
2023-04-13T16:53:18.580Z,99339.25
2023-04-13T16:58:15.047Z,99353.31
2023-04-13T17:03:11.394Z,99361.38
2023-04-13T17:08:08.545Z,99354.56
2023-04-13T17:13:05.182Z,99373.38
2023-04-13T17:18:01.498Z,99388.34
2023-04-13T17:22:58.015Z,99385.28
2023-04-13T17:27:54.258Z,99394.59
2023-04-13T17:32:50.634Z,99395.06
2023-04-13T17:37:46.934Z,99401.75
2023-04-13T17:42:43.204Z,99408.91
2023-04-13T17:47:39.543Z,99408.13
2023-04-13T17:52:35.904Z,99413.00
2023-04-13T17:57:32.167Z,99414.75
2023-04-13T18:02:28.618Z,99417.09
2023-04-13T18:07:26.249Z,99422.22
2023-04-13T18:12:22.543Z,99429.28
2023-04-13T18:17:18.983Z,99425.28
2023-04-13T18:22:15.289Z,99415.66
2023-04-13T18:27:12.102Z,99434.78
2023-04-13T18:32:09.599Z,99452.88
2023-04-13T18:37:05.874Z,99463.59
2023-04-13T18:42:02.790Z,99479.03
2023-04-13T18:46:59.350Z,99489.38
2023-04-13T18:51:55.941Z,99495.50
2023-04-13T18:56:52.236Z,99500.63
2023-04-13T19:01:48.732Z,99503.06
2023-04-13T19:06:45.080Z,99512.50
2023-04-13T19:11:46.152Z,99517.38
2023-04-13T19:16:45.663Z,99525.28
2023-04-13T19:21:42.209Z,99526.75
2023-04-13T19:26:42.368Z,99533.94
2023-04-13T19:31:41.356Z,99541.63
2023-04-13T19:36:38.339Z,99538.34
2023-04-13T19:41:35.995Z,99547.06
2023-04-13T19:46:34.997Z,99541.00
2023-04-13T19:51:32.797Z,99550.19
2023-04-13T19:56:30.675Z,99552.41
2023-04-13T20:01:30.236Z,99557.72
2023-04-13T20:06:27.548Z,99560.59
2023-04-13T20:11:23.823Z,99562.44
2023-04-13T20:16:20.322Z,99567.13
2023-04-13T20:21:18.226Z,99572.53
2023-04-13T20:26:14.545Z,99583.75
2023-04-13T20:31:11.476Z,99575.66
2023-04-13T20:36:07.773Z,99579.03
2023-04-13T20:41:04.390Z,99578.00
2023-04-13T20:46:00.963Z,99588.63
2023-04-13T20:50:57.230Z,99576.19
2023-04-13T20:55:53.507Z,99572.31
2023-04-13T21:00:49.784Z,99567.66
2023-04-13T21:05:46.403Z,99561.53
2023-04-13T21:10:43.927Z,99553.00
2023-04-13T21:15:40.268Z,99561.72
2023-04-13T21:20:38.446Z,99551.19
2023-04-13T21:25:35.874Z,99557.72
2023-04-13T21:30:32.186Z,99565.63
2023-04-13T21:35:28.649Z,99566.75
2023-04-13T21:40:24.978Z,99573.88
2023-04-13T21:45:23.264Z,99577.03
2023-04-13T21:50:20.833Z,99571.63
2023-04-13T21:55:20.213Z,99565.00
2023-04-13T22:00:17.913Z,99565.97
2023-04-13T22:05:16.633Z,99572.97
2023-04-13T22:10:13.043Z,99581.56
2023-04-13T22:15:09.563Z,99586.13
2023-04-13T22:20:06.395Z,99584.19
2023-04-13T22:25:02.684Z,99589.09
2023-04-13T22:29:59.017Z,99592.91
2023-04-13T22:34:56.047Z,99604.44
2023-04-13T22:39:52.307Z,99597.78
2023-04-13T22:44:48.566Z,99609.28
2023-04-13T22:49:44.855Z,99616.19
2023-04-13T22:54:41.108Z,99615.28
2023-04-13T22:59:37.560Z,99624.84
2023-04-13T23:04:33.988Z,99622.75
2023-04-13T23:09:30.433Z,99628.97
2023-04-13T23:14:26.756Z,99628.03
2023-04-13T23:19:23.073Z,99635.16
2023-04-13T23:24:19.347Z,99622.41
2023-04-13T23:29:16.381Z,99632.72
2023-04-13T23:34:12.697Z,99634.44
2023-04-13T23:39:09.148Z,99634.38
2023-04-13T23:44:05.464Z,99632.13
2023-04-13T23:49:02.363Z,99638.91
2023-04-13T23:53:58.933Z,99642.66
2023-04-13T23:58:55.256Z,99639.66
